sensor_id;sensor_type;location;lat;lon;timestamp;temperature;humidity
18777;DHT22;9517;51.174;4.160;2023-11-19T00:01:37;13.70;99.90
18777;DHT22;9517;51.174;4.160;2023-11-19T00:04:05;13.70;99.90
18777;DHT22;9517;51.174;4.160;2023-11-19T00:06:33;13.70;99.90
18777;DHT22;9517;51.174;4.160;2023-11-19T00:09:00;13.70;99.90
18777;DHT22;9517;51.174;4.160;2023-11-19T00:11:29;13.60;99.90
18777;DHT22;9517;51.174;4.160;2023-11-19T00:13:56;13.60;99.90
18777;DHT22;9517;51.174;4.160;2023-11-19T00:16:23;13.70;99.90
18777;DHT22;9517;51.174;4.160;2023-11-19T00:18:50;13.70;99.90
18777;DHT22;9517;51.174;4.160;2023-11-19T00:21:18;13.60;99.90
18777;DHT22;9517;51.174;4.160;2023-11-19T00:23:46;13.60;99.90
18777;DHT22;9517;51.174;4.160;2023-11-19T00:26:13;13.60;99.90
18777;DHT22;9517;51.174;4.160;2023-11-19T00:28:41;13.60;99.90
18777;DHT22;9517;51.174;4.160;2023-11-19T00:31:09;13.70;99.90
18777;DHT22;9517;51.174;4.160;2023-11-19T00:33:36;13.60;99.90
18777;DHT22;9517;51.174;4.160;2023-11-19T00:36:04;13.70;99.90
18777;DHT22;9517;51.174;4.160;2023-11-19T00:38:31;13.60;99.90
18777;DHT22;9517;51.174;4.160;2023-11-19T00:40:59;13.60;99.90
18777;DHT22;9517;51.174;4.160;2023-11-19T00:43:28;13.60;99.90
18777;DHT22;9517;51.174;4.160;2023-11-19T00:45:55;13.60;99.90
18777;DHT22;9517;51.174;4.160;2023-11-19T00:48:22;13.60;99.90
18777;DHT22;9517;51.174;4.160;2023-11-19T00:50:49;13.60;99.90
18777;DHT22;9517;51.174;4.160;2023-11-19T00:53:15;13.60;99.90
18777;DHT22;9517;51.174;4.160;2023-11-19T00:55:43;13.60;99.90
18777;DHT22;9517;51.174;4.160;2023-11-19T00:58:11;13.60;99.90
18777;DHT22;9517;51.174;4.160;2023-11-19T01:00:38;13.50;99.90
18777;DHT22;9517;51.174;4.160;2023-11-19T01:03:05;13.50;99.90
18777;DHT22;9517;51.174;4.160;2023-11-19T01:05:33;13.50;99.90
18777;DHT22;9517;51.174;4.160;2023-11-19T01:08:00;13.50;99.90
18777;DHT22;9517;51.174;4.160;2023-11-19T01:10:30;13.40;99.90
18777;DHT22;9517;51.174;4.160;2023-11-19T01:12:57;13.40;99.90
18777;DHT22;9517;51.174;4.160;2023-11-19T01:15:25;13.30;99.90
18777;DHT22;9517;51.174;4.160;2023-11-19T01:17:52;13.30;99.90
18777;DHT22;9517;51.174;4.160;2023-11-19T01:20:19;13.40;99.90
18777;DHT22;9517;51.174;4.160;2023-11-19T01:22:46;13.30;99.90
18777;DHT22;9517;51.174;4.160;2023-11-19T01:25:14;13.40;99.90
18777;DHT22;9517;51.174;4.160;2023-11-19T01:27:41;13.30;99.90
18777;DHT22;9517;51.174;4.160;2023-11-19T01:30:10;13.30;99.90
18777;DHT22;9517;51.174;4.160;2023-11-19T01:32:40;13.30;99.90
18777;DHT22;9517;51.174;4.160;2023-11-19T01:35:07;13.30;99.90
18777;DHT22;9517;51.174;4.160;2023-11-19T01:37:34;13.30;99.90
18777;DHT22;9517;51.174;4.160;2023-11-19T01:40:02;13.20;99.90
18777;DHT22;9517;51.174;4.160;2023-11-19T01:42:29;13.20;99.90
18777;DHT22;9517;51.174;4.160;2023-11-19T01:45:00;13.20;99.90
18777;DHT22;9517;51.174;4.160;2023-11-19T01:47:28;13.10;99.90
18777;DHT22;9517;51.174;4.160;2023-11-19T01:49:59;13.10;99.90
18777;DHT22;9517;51.174;4.160;2023-11-19T01:52:27;13.10;99.90
18777;DHT22;9517;51.174;4.160;2023-11-19T01:54:54;13.20;99.90
18777;DHT22;9517;51.174;4.160;2023-11-19T01:57:22;13.20;99.90
18777;DHT22;9517;51.174;4.160;2023-11-19T01:59:50;13.20;99.90
18777;DHT22;9517;51.174;4.160;2023-11-19T02:02:18;13.20;99.90
18777;DHT22;9517;51.174;4.160;2023-11-19T02:04:46;13.20;99.90
18777;DHT22;9517;51.174;4.160;2023-11-19T02:07:16;13.30;99.90
18777;DHT22;9517;51.174;4.160;2023-11-19T02:09:44;13.20;99.90
18777;DHT22;9517;51.174;4.160;2023-11-19T02:12:11;13.20;99.90
18777;DHT22;9517;51.174;4.160;2023-11-19T02:14:38;13.20;99.90
18777;DHT22;9517;51.174;4.160;2023-11-19T02:17:06;13.20;99.90
18777;DHT22;9517;51.174;4.160;2023-11-19T02:19:34;13.30;99.90
18777;DHT22;9517;51.174;4.160;2023-11-19T02:22:01;13.30;99.90
18777;DHT22;9517;51.174;4.160;2023-11-19T02:24:31;13.30;99.90
18777;DHT22;9517;51.174;4.160;2023-11-19T02:27:03;13.30;99.90
18777;DHT22;9517;51.174;4.160;2023-11-19T02:29:37;13.20;99.90
18777;DHT22;9517;51.174;4.160;2023-11-19T02:32:04;13.20;99.90
18777;DHT22;9517;51.174;4.160;2023-11-19T02:34:34;13.20;99.90
18777;DHT22;9517;51.174;4.160;2023-11-19T02:37:01;13.10;99.90
18777;DHT22;9517;51.174;4.160;2023-11-19T02:39:29;13.00;99.90
18777;DHT22;9517;51.174;4.160;2023-11-19T02:41:57;12.90;99.90
18777;DHT22;9517;51.174;4.160;2023-11-19T02:44:24;12.90;99.90
18777;DHT22;9517;51.174;4.160;2023-11-19T02:46:55;12.90;99.90
18777;DHT22;9517;51.174;4.160;2023-11-19T02:49:25;12.80;99.90
18777;DHT22;9517;51.174;4.160;2023-11-19T02:51:51;12.80;99.90
18777;DHT22;9517;51.174;4.160;2023-11-19T02:54:19;12.80;99.90
18777;DHT22;9517;51.174;4.160;2023-11-19T02:56:47;12.80;99.90
18777;DHT22;9517;51.174;4.160;2023-11-19T02:59:20;12.80;99.90
18777;DHT22;9517;51.174;4.160;2023-11-19T03:01:53;12.90;99.90
18777;DHT22;9517;51.174;4.160;2023-11-19T03:04:22;12.80;99.90
18777;DHT22;9517;51.174;4.160;2023-11-19T03:06:49;12.80;99.90
18777;DHT22;9517;51.174;4.160;2023-11-19T03:09:16;12.80;99.90
18777;DHT22;9517;51.174;4.160;2023-11-19T03:11:43;12.90;99.90
18777;DHT22;9517;51.174;4.160;2023-11-19T03:14:10;12.90;99.90
18777;DHT22;9517;51.174;4.160;2023-11-19T03:16:37;13.00;99.90
18777;DHT22;9517;51.174;4.160;2023-11-19T03:19:04;12.90;99.90
18777;DHT22;9517;51.174;4.160;2023-11-19T03:21:33;12.90;99.90
18777;DHT22;9517;51.174;4.160;2023-11-19T03:24:00;12.90;99.90
18777;DHT22;9517;51.174;4.160;2023-11-19T03:26:27;12.80;99.90
18777;DHT22;9517;51.174;4.160;2023-11-19T03:28:54;12.80;99.90
18777;DHT22;9517;51.174;4.160;2023-11-19T03:31:22;12.80;99.90
18777;DHT22;9517;51.174;4.160;2023-11-19T03:33:50;12.80;99.90
18777;DHT22;9517;51.174;4.160;2023-11-19T03:36:17;12.80;99.90
18777;DHT22;9517;51.174;4.160;2023-11-19T03:38:46;12.80;99.90
18777;DHT22;9517;51.174;4.160;2023-11-19T03:41:14;12.80;99.90
18777;DHT22;9517;51.174;4.160;2023-11-19T03:43:41;12.80;99.90
18777;DHT22;9517;51.174;4.160;2023-11-19T03:46:19;12.80;99.90
18777;DHT22;9517;51.174;4.160;2023-11-19T03:48:46;12.80;99.90
18777;DHT22;9517;51.174;4.160;2023-11-19T03:51:13;12.90;99.90
18777;DHT22;9517;51.174;4.160;2023-11-19T03:53:42;12.80;99.90
18777;DHT22;9517;51.174;4.160;2023-11-19T03:56:11;12.80;99.90
18777;DHT22;9517;51.174;4.160;2023-11-19T03:58:38;12.80;99.90
18777;DHT22;9517;51.174;4.160;2023-11-19T04:01:06;12.90;99.90
18777;DHT22;9517;51.174;4.160;2023-11-19T04:03:37;12.90;99.90
18777;DHT22;9517;51.174;4.160;2023-11-19T04:06:05;12.80;99.90
18777;DHT22;9517;51.174;4.160;2023-11-19T04:08:32;12.80;99.90
18777;DHT22;9517;51.174;4.160;2023-11-19T04:11:00;12.70;99.90
18777;DHT22;9517;51.174;4.160;2023-11-19T04:13:29;12.60;99.90
18777;DHT22;9517;51.174;4.160;2023-11-19T04:15:56;12.60;99.90
18777;DHT22;9517;51.174;4.160;2023-11-19T04:18:23;12.50;99.90
18777;DHT22;9517;51.174;4.160;2023-11-19T04:20:50;12.40;99.90
18777;DHT22;9517;51.174;4.160;2023-11-19T04:23:17;12.30;99.90
18777;DHT22;9517;51.174;4.160;2023-11-19T04:25:44;12.30;99.90
18777;DHT22;9517;51.174;4.160;2023-11-19T04:28:11;12.30;99.90
18777;DHT22;9517;51.174;4.160;2023-11-19T04:30:40;12.20;99.90
18777;DHT22;9517;51.174;4.160;2023-11-19T04:33:07;12.20;99.90
18777;DHT22;9517;51.174;4.160;2023-11-19T04:35:34;12.20;99.90
18777;DHT22;9517;51.174;4.160;2023-11-19T04:38:01;12.20;99.90
18777;DHT22;9517;51.174;4.160;2023-11-19T04:40:28;12.10;99.90
18777;DHT22;9517;51.174;4.160;2023-11-19T04:42:55;12.10;99.90
18777;DHT22;9517;51.174;4.160;2023-11-19T04:45:22;12.10;99.90
18777;DHT22;9517;51.174;4.160;2023-11-19T04:47:50;12.10;99.90
18777;DHT22;9517;51.174;4.160;2023-11-19T04:50:17;12.10;99.90
18777;DHT22;9517;51.174;4.160;2023-11-19T04:52:44;12.00;99.90
18777;DHT22;9517;51.174;4.160;2023-11-19T04:55:13;12.00;99.90
18777;DHT22;9517;51.174;4.160;2023-11-19T04:57:40;12.00;99.90
18777;DHT22;9517;51.174;4.160;2023-11-19T05:00:08;11.90;99.90
18777;DHT22;9517;51.174;4.160;2023-11-19T05:02:37;12.00;99.90
18777;DHT22;9517;51.174;4.160;2023-11-19T05:05:06;12.00;99.90
18777;DHT22;9517;51.174;4.160;2023-11-19T05:07:33;11.90;99.90
18777;DHT22;9517;51.174;4.160;2023-11-19T05:10:00;11.90;99.90
18777;DHT22;9517;51.174;4.160;2023-11-19T05:12:27;11.90;99.90
18777;DHT22;9517;51.174;4.160;2023-11-19T05:14:54;11.80;99.90
18777;DHT22;9517;51.174;4.160;2023-11-19T05:17:21;11.80;99.90
18777;DHT22;9517;51.174;4.160;2023-11-19T05:19:48;11.80;99.90
18777;DHT22;9517;51.174;4.160;2023-11-19T05:22:17;11.90;99.90
18777;DHT22;9517;51.174;4.160;2023-11-19T05:24:44;11.90;99.90
18777;DHT22;9517;51.174;4.160;2023-11-19T05:27:11;11.80;99.90
18777;DHT22;9517;51.174;4.160;2023-11-19T05:29:39;11.80;99.90
18777;DHT22;9517;51.174;4.160;2023-11-19T05:32:07;11.70;99.90
18777;DHT22;9517;51.174;4.160;2023-11-19T05:34:34;11.70;99.90
18777;DHT22;9517;51.174;4.160;2023-11-19T05:37:01;11.80;99.90
18777;DHT22;9517;51.174;4.160;2023-11-19T05:39:29;11.70;99.90
18777;DHT22;9517;51.174;4.160;2023-11-19T05:41:56;11.70;99.90
18777;DHT22;9517;51.174;4.160;2023-11-19T05:44:23;11.70;99.90
18777;DHT22;9517;51.174;4.160;2023-11-19T05:46:50;11.70;99.90
18777;DHT22;9517;51.174;4.160;2023-11-19T05:49:17;11.70;99.90
18777;DHT22;9517;51.174;4.160;2023-11-19T05:51:44;11.80;99.90
18777;DHT22;9517;51.174;4.160;2023-11-19T05:54:11;11.80;99.90
18777;DHT22;9517;51.174;4.160;2023-11-19T05:56:40;11.80;99.90
18777;DHT22;9517;51.174;4.160;2023-11-19T05:59:07;11.90;99.90
18777;DHT22;9517;51.174;4.160;2023-11-19T06:01:41;12.00;99.90
18777;DHT22;9517;51.174;4.160;2023-11-19T06:04:08;12.10;99.90
18777;DHT22;9517;51.174;4.160;2023-11-19T06:06:35;12.00;99.90
18777;DHT22;9517;51.174;4.160;2023-11-19T06:09:02;11.90;99.90
18777;DHT22;9517;51.174;4.160;2023-11-19T06:11:32;11.90;99.90
18777;DHT22;9517;51.174;4.160;2023-11-19T06:14:01;11.90;99.90
18777;DHT22;9517;51.174;4.160;2023-11-19T06:16:28;11.80;99.90
18777;DHT22;9517;51.174;4.160;2023-11-19T06:18:55;11.80;99.90
18777;DHT22;9517;51.174;4.160;2023-11-19T06:21:22;11.70;99.90
18777;DHT22;9517;51.174;4.160;2023-11-19T06:23:49;11.70;99.90
18777;DHT22;9517;51.174;4.160;2023-11-19T06:26:18;11.60;99.90
18777;DHT22;9517;51.174;4.160;2023-11-19T06:28:45;11.60;99.90
18777;DHT22;9517;51.174;4.160;2023-11-19T06:31:13;11.60;99.90
18777;DHT22;9517;51.174;4.160;2023-11-19T06:33:41;11.60;99.90
18777;DHT22;9517;51.174;4.160;2023-11-19T06:36:09;11.50;99.90
18777;DHT22;9517;51.174;4.160;2023-11-19T06:38:36;11.50;99.90
18777;DHT22;9517;51.174;4.160;2023-11-19T06:41:07;11.50;99.90
18777;DHT22;9517;51.174;4.160;2023-11-19T06:43:36;11.50;99.90
18777;DHT22;9517;51.174;4.160;2023-11-19T06:46:03;11.50;99.90
18777;DHT22;9517;51.174;4.160;2023-11-19T06:48:33;11.50;99.90
18777;DHT22;9517;51.174;4.160;2023-11-19T06:51:00;11.50;99.90
18777;DHT22;9517;51.174;4.160;2023-11-19T06:53:27;11.50;99.90
18777;DHT22;9517;51.174;4.160;2023-11-19T06:55:55;11.50;99.90
18777;DHT22;9517;51.174;4.160;2023-11-19T06:58:22;11.50;99.90
18777;DHT22;9517;51.174;4.160;2023-11-19T07:00:49;11.50;99.90
18777;DHT22;9517;51.174;4.160;2023-11-19T07:03:16;11.50;99.90
18777;DHT22;9517;51.174;4.160;2023-11-19T07:05:45;11.40;99.90
18777;DHT22;9517;51.174;4.160;2023-11-19T07:08:12;11.30;99.90
18777;DHT22;9517;51.174;4.160;2023-11-19T07:10:39;11.30;99.90
18777;DHT22;9517;51.174;4.160;2023-11-19T07:13:06;11.30;99.90
18777;DHT22;9517;51.174;4.160;2023-11-19T07:15:33;11.30;99.90
18777;DHT22;9517;51.174;4.160;2023-11-19T07:18:00;11.40;99.90
18777;DHT22;9517;51.174;4.160;2023-11-19T07:20:27;11.40;99.90
18777;DHT22;9517;51.174;4.160;2023-11-19T07:22:55;11.40;99.90
18777;DHT22;9517;51.174;4.160;2023-11-19T07:25:22;11.40;99.90
18777;DHT22;9517;51.174;4.160;2023-11-19T07:27:51;11.40;99.90
18777;DHT22;9517;51.174;4.160;2023-11-19T07:30:19;11.50;99.90
18777;DHT22;9517;51.174;4.160;2023-11-19T07:32:46;11.50;99.90
18777;DHT22;9517;51.174;4.160;2023-11-19T07:35:14;11.50;99.90
18777;DHT22;9517;51.174;4.160;2023-11-19T07:37:41;11.60;99.90
18777;DHT22;9517;51.174;4.160;2023-11-19T07:40:11;11.60;99.90
18777;DHT22;9517;51.174;4.160;2023-11-19T07:42:38;11.60;99.90
18777;DHT22;9517;51.174;4.160;2023-11-19T07:45:06;11.60;99.90
18777;DHT22;9517;51.174;4.160;2023-11-19T07:47:33;11.60;99.90
18777;DHT22;9517;51.174;4.160;2023-11-19T07:50:01;11.70;99.90
18777;DHT22;9517;51.174;4.160;2023-11-19T08:06:13;11.70;99.90
18777;DHT22;9517;51.174;4.160;2023-11-19T08:19:58;11.90;99.90
18777;DHT22;9517;51.174;4.160;2023-11-19T08:23:28;11.90;99.90
18777;DHT22;9517;51.174;4.160;2023-11-19T08:26:18;12.00;99.90
18777;DHT22;9517;51.174;4.160;2023-11-19T08:28:45;11.90;99.90
18777;DHT22;9517;51.174;4.160;2023-11-19T08:31:13;12.00;99.90
18777;DHT22;9517;51.174;4.160;2023-11-19T08:33:40;12.10;99.90
18777;DHT22;9517;51.174;4.160;2023-11-19T08:36:08;12.10;99.90
18777;DHT22;9517;51.174;4.160;2023-11-19T08:38:36;12.20;99.90
18777;DHT22;9517;51.174;4.160;2023-11-19T08:41:04;12.20;99.90
18777;DHT22;9517;51.174;4.160;2023-11-19T08:43:32;12.30;99.90
18777;DHT22;9517;51.174;4.160;2023-11-19T08:45:59;12.30;99.90
18777;DHT22;9517;51.174;4.160;2023-11-19T08:48:26;12.40;99.90
18777;DHT22;9517;51.174;4.160;2023-11-19T08:50:53;12.50;99.90
18777;DHT22;9517;51.174;4.160;2023-11-19T08:53:20;12.50;99.90
18777;DHT22;9517;51.174;4.160;2023-11-19T08:55:49;12.50;99.90
18777;DHT22;9517;51.174;4.160;2023-11-19T08:58:16;12.60;99.90
18777;DHT22;9517;51.174;4.160;2023-11-19T09:00:43;12.60;99.90
18777;DHT22;9517;51.174;4.160;2023-11-19T09:03:10;12.70;99.90
18777;DHT22;9517;51.174;4.160;2023-11-19T09:05:38;12.60;99.90
18777;DHT22;9517;51.174;4.160;2023-11-19T09:08:06;12.80;99.90
18777;DHT22;9517;51.174;4.160;2023-11-19T09:10:34;12.70;99.90
18777;DHT22;9517;51.174;4.160;2023-11-19T09:13:02;12.80;99.90
18777;DHT22;9517;51.174;4.160;2023-11-19T09:15:29;12.80;99.90
18777;DHT22;9517;51.174;4.160;2023-11-19T09:17:56;12.90;99.90
18777;DHT22;9517;51.174;4.160;2023-11-19T09:20:23;12.90;99.90
18777;DHT22;9517;51.174;4.160;2023-11-19T09:22:50;12.90;99.90
18777;DHT22;9517;51.174;4.160;2023-11-19T09:25:17;13.10;99.90
18777;DHT22;9517;51.174;4.160;2023-11-19T09:27:45;13.10;99.90
18777;DHT22;9517;51.174;4.160;2023-11-19T09:30:14;13.00;99.90
18777;DHT22;9517;51.174;4.160;2023-11-19T09:32:41;13.00;99.90
18777;DHT22;9517;51.174;4.160;2023-11-19T09:35:09;12.90;99.90
18777;DHT22;9517;51.174;4.160;2023-11-19T09:37:39;12.90;99.90
18777;DHT22;9517;51.174;4.160;2023-11-19T09:40:07;12.90;99.90
18777;DHT22;9517;51.174;4.160;2023-11-19T09:42:40;13.00;99.90
18777;DHT22;9517;51.174;4.160;2023-11-19T09:45:13;13.00;99.90
18777;DHT22;9517;51.174;4.160;2023-11-19T09:47:42;13.20;99.90
18777;DHT22;9517;51.174;4.160;2023-11-19T09:50:12;13.40;99.90
18777;DHT22;9517;51.174;4.160;2023-11-19T09:52:41;13.40;99.90
18777;DHT22;9517;51.174;4.160;2023-11-19T09:55:08;13.40;99.90
18777;DHT22;9517;51.174;4.160;2023-11-19T09:57:37;13.40;99.90
18777;DHT22;9517;51.174;4.160;2023-11-19T10:00:07;13.40;99.90
18777;DHT22;9517;51.174;4.160;2023-11-19T10:02:37;13.50;99.90
18777;DHT22;9517;51.174;4.160;2023-11-19T10:05:07;13.60;99.90
18777;DHT22;9517;51.174;4.160;2023-11-19T10:07:34;13.60;99.90
18777;DHT22;9517;51.174;4.160;2023-11-19T10:10:02;13.70;99.90
18777;DHT22;9517;51.174;4.160;2023-11-19T10:12:30;13.70;99.90
18777;DHT22;9517;51.174;4.160;2023-11-19T10:14:58;13.70;99.90
18777;DHT22;9517;51.174;4.160;2023-11-19T10:17:28;13.80;99.90
18777;DHT22;9517;51.174;4.160;2023-11-19T10:19:57;13.50;99.90
18777;DHT22;9517;51.174;4.160;2023-11-19T10:22:25;13.10;99.90
18777;DHT22;9517;51.174;4.160;2023-11-19T10:24:52;12.90;99.90
18777;DHT22;9517;51.174;4.160;2023-11-19T10:27:20;12.60;99.90
18777;DHT22;9517;51.174;4.160;2023-11-19T10:29:47;12.50;99.90
18777;DHT22;9517;51.174;4.160;2023-11-19T10:32:14;12.50;99.90
18777;DHT22;9517;51.174;4.160;2023-11-19T10:34:41;12.50;99.90
18777;DHT22;9517;51.174;4.160;2023-11-19T10:37:27;12.60;99.90
18777;DHT22;9517;51.174;4.160;2023-11-19T10:39:55;12.80;99.90
18777;DHT22;9517;51.174;4.160;2023-11-19T10:42:23;13.00;99.90
18777;DHT22;9517;51.174;4.160;2023-11-19T10:44:50;13.20;99.90
18777;DHT22;9517;51.174;4.160;2023-11-19T10:47:19;13.40;99.90
18777;DHT22;9517;51.174;4.160;2023-11-19T10:49:47;13.50;99.90
18777;DHT22;9517;51.174;4.160;2023-11-19T10:52:18;13.40;99.90
18777;DHT22;9517;51.174;4.160;2023-11-19T10:54:49;13.60;99.90
18777;DHT22;9517;51.174;4.160;2023-11-19T10:57:20;13.40;99.90
18777;DHT22;9517;51.174;4.160;2023-11-19T10:59:48;13.30;99.90
18777;DHT22;9517;51.174;4.160;2023-11-19T11:02:20;13.30;99.90
18777;DHT22;9517;51.174;4.160;2023-11-19T11:04:50;13.60;99.90
18777;DHT22;9517;51.174;4.160;2023-11-19T11:07:21;13.70;99.90
18777;DHT22;9517;51.174;4.160;2023-11-19T11:09:51;13.80;99.90
18777;DHT22;9517;51.174;4.160;2023-11-19T11:12:22;14.30;99.90
18777;DHT22;9517;51.174;4.160;2023-11-19T11:14:55;14.70;99.90
18777;DHT22;9517;51.174;4.160;2023-11-19T11:17:25;14.90;99.90
18777;DHT22;9517;51.174;4.160;2023-11-19T11:19:55;15.20;99.90
18777;DHT22;9517;51.174;4.160;2023-11-19T11:22:28;15.80;99.90
18777;DHT22;9517;51.174;4.160;2023-11-19T11:25:19;16.10;99.90
18777;DHT22;9517;51.174;4.160;2023-11-19T11:28:17;16.20;99.90
18777;DHT22;9517;51.174;4.160;2023-11-19T11:30:57;16.40;99.90
18777;DHT22;9517;51.174;4.160;2023-11-19T11:33:36;16.30;99.90
18777;DHT22;9517;51.174;4.160;2023-11-19T11:36:15;16.30;99.90
18777;DHT22;9517;51.174;4.160;2023-11-19T11:38:48;17.00;99.90
18777;DHT22;9517;51.174;4.160;2023-11-19T11:41:17;16.80;99.90
18777;DHT22;9517;51.174;4.160;2023-11-19T11:43:47;15.80;99.90
18777;DHT22;9517;51.174;4.160;2023-11-19T11:49:25;14.60;99.90
18777;DHT22;9517;51.174;4.160;2023-11-19T11:52:03;14.30;99.90
18777;DHT22;9517;51.174;4.160;2023-11-19T11:54:34;14.10;99.90
18777;DHT22;9517;51.174;4.160;2023-11-19T11:57:12;13.60;99.90
18777;DHT22;9517;51.174;4.160;2023-11-19T11:59:50;13.40;99.90
18777;DHT22;9517;51.174;4.160;2023-11-19T12:02:19;13.00;99.90
18777;DHT22;9517;51.174;4.160;2023-11-19T12:04:51;12.80;99.90
18777;DHT22;9517;51.174;4.160;2023-11-19T12:07:20;12.60;99.90
18777;DHT22;9517;51.174;4.160;2023-11-19T12:09:52;12.60;99.90
18777;DHT22;9517;51.174;4.160;2023-11-19T12:12:27;12.50;99.90
18777;DHT22;9517;51.174;4.160;2023-11-19T12:15:06;12.50;99.90
18777;DHT22;9517;51.174;4.160;2023-11-19T12:17:40;12.40;99.90
18777;DHT22;9517;51.174;4.160;2023-11-19T12:20:14;12.40;99.90
18777;DHT22;9517;51.174;4.160;2023-11-19T12:22:43;12.30;99.90
18777;DHT22;9517;51.174;4.160;2023-11-19T12:25:13;12.30;99.90
18777;DHT22;9517;51.174;4.160;2023-11-19T12:27:44;12.50;99.90
18777;DHT22;9517;51.174;4.160;2023-11-19T12:30:11;13.00;99.90
18777;DHT22;9517;51.174;4.160;2023-11-19T12:32:40;13.90;99.90
18777;DHT22;9517;51.174;4.160;2023-11-19T12:35:08;14.90;99.90
18777;DHT22;9517;51.174;4.160;2023-11-19T12:37:47;15.20;99.90
18777;DHT22;9517;51.174;4.160;2023-11-19T12:40:18;15.40;99.90
18777;DHT22;9517;51.174;4.160;2023-11-19T12:42:45;15.20;99.90
18777;DHT22;9517;51.174;4.160;2023-11-19T12:45:13;14.70;99.90
18777;DHT22;9517;51.174;4.160;2023-11-19T12:48:25;14.20;99.90
18777;DHT22;9517;51.174;4.160;2023-11-19T12:53:48;14.50;99.90
18777;DHT22;9517;51.174;4.160;2023-11-19T12:59:42;14.00;99.90
18777;DHT22;9517;51.174;4.160;2023-11-19T13:02:09;13.80;99.90
18777;DHT22;9517;51.174;4.160;2023-11-19T13:04:37;13.70;99.90
18777;DHT22;9517;51.174;4.160;2023-11-19T13:07:29;13.40;99.90
18777;DHT22;9517;51.174;4.160;2023-11-19T13:10:01;13.20;99.90
18777;DHT22;9517;51.174;4.160;2023-11-19T13:12:29;12.90;99.90
18777;DHT22;9517;51.174;4.160;2023-11-19T13:14:57;12.80;99.90
18777;DHT22;9517;51.174;4.160;2023-11-19T13:17:24;12.60;99.90
18777;DHT22;9517;51.174;4.160;2023-11-19T13:19:51;12.60;99.90
18777;DHT22;9517;51.174;4.160;2023-11-19T13:22:18;12.70;99.90
18777;DHT22;9517;51.174;4.160;2023-11-19T13:24:46;13.20;99.90
18777;DHT22;9517;51.174;4.160;2023-11-19T13:27:51;13.80;99.90
18777;DHT22;9517;51.174;4.160;2023-11-19T13:30:19;14.40;99.90
18777;DHT22;9517;51.174;4.160;2023-11-19T13:36:12;14.90;99.90
18777;DHT22;9517;51.174;4.160;2023-11-19T13:38:40;15.00;99.90
18777;DHT22;9517;51.174;4.160;2023-11-19T13:41:09;14.60;99.90
18777;DHT22;9517;51.174;4.160;2023-11-19T13:43:37;14.10;99.90
18777;DHT22;9517;51.174;4.160;2023-11-19T13:46:06;14.00;99.90
18777;DHT22;9517;51.174;4.160;2023-11-19T13:48:37;13.80;99.90
18777;DHT22;9517;51.174;4.160;2023-11-19T13:51:05;13.50;99.90
18777;DHT22;9517;51.174;4.160;2023-11-19T13:53:32;13.40;99.90
18777;DHT22;9517;51.174;4.160;2023-11-19T13:55:59;13.20;99.90
18777;DHT22;9517;51.174;4.160;2023-11-19T13:58:26;13.20;99.90
18777;DHT22;9517;51.174;4.160;2023-11-19T14:00:54;13.10;99.90
18777;DHT22;9517;51.174;4.160;2023-11-19T14:03:30;13.00;99.90
18777;DHT22;9517;51.174;4.160;2023-11-19T14:09:00;12.90;99.90
18777;DHT22;9517;51.174;4.160;2023-11-19T14:14:50;12.70;99.90
18777;DHT22;9517;51.174;4.160;2023-11-19T14:20:26;12.40;99.90
18777;DHT22;9517;51.174;4.160;2023-11-19T14:22:53;12.30;99.90
18777;DHT22;9517;51.174;4.160;2023-11-19T14:25:20;12.20;99.90
18777;DHT22;9517;51.174;4.160;2023-11-19T14:27:49;12.30;99.90
18777;DHT22;9517;51.174;4.160;2023-11-19T14:30:16;12.50;99.90
18777;DHT22;9517;51.174;4.160;2023-11-19T14:32:44;12.50;99.90
18777;DHT22;9517;51.174;4.160;2023-11-19T14:35:17;12.60;99.90
18777;DHT22;9517;51.174;4.160;2023-11-19T14:38:02;12.70;99.90
18777;DHT22;9517;51.174;4.160;2023-11-19T14:40:32;12.70;99.90
18777;DHT22;9517;51.174;4.160;2023-11-19T14:42:59;12.60;99.90
18777;DHT22;9517;51.174;4.160;2023-11-19T14:45:27;12.60;99.90
18777;DHT22;9517;51.174;4.160;2023-11-19T14:47:54;12.60;99.90
18777;DHT22;9517;51.174;4.160;2023-11-19T14:50:22;12.50;99.90
18777;DHT22;9517;51.174;4.160;2023-11-19T14:52:51;12.50;99.90
18777;DHT22;9517;51.174;4.160;2023-11-19T14:55:19;12.50;99.90
18777;DHT22;9517;51.174;4.160;2023-11-19T14:57:46;12.50;99.90
18777;DHT22;9517;51.174;4.160;2023-11-19T15:00:15;12.40;99.90
18777;DHT22;9517;51.174;4.160;2023-11-19T15:02:43;12.30;99.90
18777;DHT22;9517;51.174;4.160;2023-11-19T15:05:10;12.20;99.90
18777;DHT22;9517;51.174;4.160;2023-11-19T15:07:39;12.20;99.90
18777;DHT22;9517;51.174;4.160;2023-11-19T15:10:08;12.20;99.90
18777;DHT22;9517;51.174;4.160;2023-11-19T15:12:38;12.20;99.90
18777;DHT22;9517;51.174;4.160;2023-11-19T15:15:08;12.20;99.90
18777;DHT22;9517;51.174;4.160;2023-11-19T15:17:38;12.20;99.90
18777;DHT22;9517;51.174;4.160;2023-11-19T15:20:07;12.20;99.90
18777;DHT22;9517;51.174;4.160;2023-11-19T15:22:34;12.30;99.90
18777;DHT22;9517;51.174;4.160;2023-11-19T15:25:01;12.30;99.90
18777;DHT22;9517;51.174;4.160;2023-11-19T15:27:35;12.30;99.90
18777;DHT22;9517;51.174;4.160;2023-11-19T15:30:02;12.30;99.90
18777;DHT22;9517;51.174;4.160;2023-11-19T15:32:30;12.30;99.90
18777;DHT22;9517;51.174;4.160;2023-11-19T15:34:57;12.40;99.90
18777;DHT22;9517;51.174;4.160;2023-11-19T15:37:24;12.40;99.90
18777;DHT22;9517;51.174;4.160;2023-11-19T15:39:52;12.40;99.90
18777;DHT22;9517;51.174;4.160;2023-11-19T15:42:19;12.40;99.90
18777;DHT22;9517;51.174;4.160;2023-11-19T15:44:47;12.40;99.90
18777;DHT22;9517;51.174;4.160;2023-11-19T15:47:15;12.40;99.90
18777;DHT22;9517;51.174;4.160;2023-11-19T15:49:42;12.40;99.90
18777;DHT22;9517;51.174;4.160;2023-11-19T15:52:11;12.30;99.90
18777;DHT22;9517;51.174;4.160;2023-11-19T15:54:40;12.30;99.90
18777;DHT22;9517;51.174;4.160;2023-11-19T15:57:07;12.20;99.90
18777;DHT22;9517;51.174;4.160;2023-11-19T15:59:34;12.10;99.90
18777;DHT22;9517;51.174;4.160;2023-11-19T16:02:03;12.00;99.90
18777;DHT22;9517;51.174;4.160;2023-11-19T16:04:30;11.90;99.90
18777;DHT22;9517;51.174;4.160;2023-11-19T16:06:58;11.80;99.90
18777;DHT22;9517;51.174;4.160;2023-11-19T16:09:25;11.80;99.90
18777;DHT22;9517;51.174;4.160;2023-11-19T16:11:54;11.80;99.90
18777;DHT22;9517;51.174;4.160;2023-11-19T16:14:21;11.80;99.90
18777;DHT22;9517;51.174;4.160;2023-11-19T16:16:54;11.80;99.90
18777;DHT22;9517;51.174;4.160;2023-11-19T16:19:23;11.80;99.90
18777;DHT22;9517;51.174;4.160;2023-11-19T16:21:52;11.80;99.90
18777;DHT22;9517;51.174;4.160;2023-11-19T16:24:19;11.80;99.90
18777;DHT22;9517;51.174;4.160;2023-11-19T16:26:46;11.80;99.90
18777;DHT22;9517;51.174;4.160;2023-11-19T16:29:14;11.80;99.90
18777;DHT22;9517;51.174;4.160;2023-11-19T16:31:41;11.80;99.90
18777;DHT22;9517;51.174;4.160;2023-11-19T16:34:08;11.80;99.90
18777;DHT22;9517;51.174;4.160;2023-11-19T16:36:37;11.80;99.90
18777;DHT22;9517;51.174;4.160;2023-11-19T16:48:24;11.90;99.90
18777;DHT22;9517;51.174;4.160;2023-11-19T16:50:51;11.90;99.90
18777;DHT22;9517;51.174;4.160;2023-11-19T16:53:20;11.90;99.90